Easton, WA

1:32 PM PST on December 20, 2014 (GMT -0800)
Double K - Easton WA | Change Station
CLOSE
Current Station
Personal Weather Station
Location: Cle Elum, WA
Elevation: 2159 ft
Nearby Weather Stations

Elev 2159 ft 47.22 °N, 121.16 °W | Updated 12 minutes ago

Rain
Rain
33.4 °F
Feels Like 33 °F
N
0.0
Wind Variable Wind from WSW

Today
High -- | Low -- °F
--% Chance of Precip.
Yesterday
High -- | Low -- °F
Precip. -- in
7:48 AM 4:16 PM
Waning Crescent, 2% visible
Pressure 29.65 in
Visibility 3.0 miles
Clouds Few 100 ft
Overcast 1500 ft
Windchill 33 °F
Dew Point 33 °F
Humidity 99%
Rainfall 0.53 in
Snow Depth Not available.
UV 0 out of 12
Pollen .40 out of 12
Air Quality Not available.
Flu Activity Not available.
SPECI KELN 202127Z AUTO 00000KT 3SM BR FEW001 OVC015 05/03 A2965 RMK AO2 RAE22 P0000 T00500033

More Conditions Fewer Conditions

Pressure 29.65 in
Visibility 3.0 miles
Clouds Few 100 ft
Overcast 1500 ft
Windchill 33 °F
Dew Point 33 °F
Humidity 99%
Rainfall 0.53 in
Snow Depth Not available.
UV 0 out of 12
Pollen .40 out of 12
Air Quality Not available.
Flu Activity Not available.
SPECI KELN 202127Z AUTO 00000KT 3SM BR FEW001 OVC015 05/03 A2965 RMK AO2 RAE22 P0000 T00500033

More Conditions Fewer Conditions

10-Day Weather Forecast

Almanac

Astronomy

Dec. 20, 2014 Rise Set
Actual Time
Civil Twilight
Nautical Twilight
Astronomical Twilight
Moon
Length of Visible Light
Length of Day
Tomorrow will be .
, % of the Moon is Illuminated

Today's Extremes

State Highs State Lows

Community

WunderPhotos

Upload Photos

1,779,285 photos uploaded!

WunderBlogs® & News

Nearby

Air Quality

  Air Quality AQ Index Pollutant
Not available.

Snow Depth

Station Depth Elevation

Earthquake Activity

City Distance Mag. Time & Date
Minimum magnitude displayed is 2.5.

Coastal Water Temperatures

Place Temperature

Nearby Weather Stations